sensor_id;sensor_type;location;lat;lon;timestamp;temperature;humidity
60293;DHT22;52402;52.670;6.750;2023-03-04T00:01:41;5.70;99.90
60293;DHT22;52402;52.670;6.750;2023-03-04T00:04:07;5.70;99.90
60293;DHT22;52402;52.670;6.750;2023-03-04T00:06:33;5.70;99.90
60293;DHT22;52402;52.670;6.750;2023-03-04T00:08:58;5.70;99.90
60293;DHT22;52402;52.670;6.750;2023-03-04T00:11:24;5.80;99.90
60293;DHT22;52402;52.670;6.750;2023-03-04T00:13:50;5.70;99.90
60293;DHT22;52402;52.670;6.750;2023-03-04T00:16:15;5.70;99.90
60293;DHT22;52402;52.670;6.750;2023-03-04T00:18:42;5.70;99.90
60293;DHT22;52402;52.670;6.750;2023-03-04T00:21:07;5.70;99.90
60293;DHT22;52402;52.670;6.750;2023-03-04T00:23:33;5.70;99.90
60293;DHT22;52402;52.670;6.750;2023-03-04T00:25:59;5.70;99.90
60293;DHT22;52402;52.670;6.750;2023-03-04T00:28:24;5.70;99.90
60293;DHT22;52402;52.670;6.750;2023-03-04T00:30:50;5.70;99.90
60293;DHT22;52402;52.670;6.750;2023-03-04T00:33:16;5.70;99.90
60293;DHT22;52402;52.670;6.750;2023-03-04T00:35:43;5.70;99.90
60293;DHT22;52402;52.670;6.750;2023-03-04T00:38:08;5.70;99.90
60293;DHT22;52402;52.670;6.750;2023-03-04T00:40:34;5.70;99.90
60293;DHT22;52402;52.670;6.750;2023-03-04T00:43:01;5.70;99.90
60293;DHT22;52402;52.670;6.750;2023-03-04T00:45:27;5.70;99.90
60293;DHT22;52402;52.670;6.750;2023-03-04T00:47:53;5.70;99.90
60293;DHT22;52402;52.670;6.750;2023-03-04T00:50:18;5.70;99.90
60293;DHT22;52402;52.670;6.750;2023-03-04T00:52:44;5.70;99.90
60293;DHT22;52402;52.670;6.750;2023-03-04T00:55:10;5.70;99.90
60293;DHT22;52402;52.670;6.750;2023-03-04T00:57:35;5.70;99.90
60293;DHT22;52402;52.670;6.750;2023-03-04T01:00:01;5.70;99.90
60293;DHT22;52402;52.670;6.750;2023-03-04T01:02:27;5.70;99.90
60293;DHT22;52402;52.670;6.750;2023-03-04T01:04:52;5.70;99.90
60293;DHT22;52402;52.670;6.750;2023-03-04T01:07:18;5.70;99.90
60293;DHT22;52402;52.670;6.750;2023-03-04T01:09:44;5.70;99.90
60293;DHT22;52402;52.670;6.750;2023-03-04T01:12:09;5.70;99.90
60293;DHT22;52402;52.670;6.750;2023-03-04T01:14:35;5.70;99.90
60293;DHT22;52402;52.670;6.750;2023-03-04T01:17:00;5.60;99.90
60293;DHT22;52402;52.670;6.750;2023-03-04T01:19:26;5.60;99.90
60293;DHT22;52402;52.670;6.750;2023-03-04T01:21:52;5.70;99.90
60293;DHT22;52402;52.670;6.750;2023-03-04T01:24:18;5.70;99.90
60293;DHT22;52402;52.670;6.750;2023-03-04T01:26:43;5.70;99.90
60293;DHT22;52402;52.670;6.750;2023-03-04T01:29:09;5.70;99.90
60293;DHT22;52402;52.670;6.750;2023-03-04T01:31:34;5.70;99.90
60293;DHT22;52402;52.670;6.750;2023-03-04T01:34:00;5.70;99.90
60293;DHT22;52402;52.670;6.750;2023-03-04T01:36:26;5.70;99.90
60293;DHT22;52402;52.670;6.750;2023-03-04T01:38:51;5.70;99.90
60293;DHT22;52402;52.670;6.750;2023-03-04T01:41:22;5.70;99.90
60293;DHT22;52402;52.670;6.750;2023-03-04T01:43:48;5.70;99.90
60293;DHT22;52402;52.670;6.750;2023-03-04T01:46:14;5.60;99.90
60293;DHT22;52402;52.670;6.750;2023-03-04T01:48:42;5.70;99.90
60293;DHT22;52402;52.670;6.750;2023-03-04T01:51:14;5.70;99.90
60293;DHT22;52402;52.670;6.750;2023-03-04T01:53:41;5.70;99.90
60293;DHT22;52402;52.670;6.750;2023-03-04T02:01:43;5.60;99.90
60293;DHT22;52402;52.670;6.750;2023-03-04T02:04:09;5.60;99.90
60293;DHT22;52402;52.670;6.750;2023-03-04T02:06:37;5.60;99.90
60293;DHT22;52402;52.670;6.750;2023-03-04T02:09:03;5.60;99.90
60293;DHT22;52402;52.670;6.750;2023-03-04T02:11:29;5.60;99.90
60293;DHT22;52402;52.670;6.750;2023-03-04T02:13:55;5.60;99.90
60293;DHT22;52402;52.670;6.750;2023-03-04T02:16:21;5.60;99.90
60293;DHT22;52402;52.670;6.750;2023-03-04T02:18:47;5.60;99.90
60293;DHT22;52402;52.670;6.750;2023-03-04T02:24:12;5.60;99.90
60293;DHT22;52402;52.670;6.750;2023-03-04T02:26:40;5.60;99.90
60293;DHT22;52402;52.670;6.750;2023-03-04T02:29:09;5.60;99.90
60293;DHT22;52402;52.670;6.750;2023-03-04T02:31:41;5.60;99.90
60293;DHT22;52402;52.670;6.750;2023-03-04T02:34:15;5.60;99.90
60293;DHT22;52402;52.670;6.750;2023-03-04T02:36:42;5.60;99.90
60293;DHT22;52402;52.670;6.750;2023-03-04T02:39:29;5.60;99.90
60293;DHT22;52402;52.670;6.750;2023-03-04T02:41:56;5.60;99.90
60293;DHT22;52402;52.670;6.750;2023-03-04T02:44:30;5.60;99.90
60293;DHT22;52402;52.670;6.750;2023-03-04T02:46:57;5.60;99.90
60293;DHT22;52402;52.670;6.750;2023-03-04T02:49:24;5.50;99.90
60293;DHT22;52402;52.670;6.750;2023-03-04T02:52:01;5.60;99.90
60293;DHT22;52402;52.670;6.750;2023-03-04T02:54:27;5.60;99.90
60293;DHT22;52402;52.670;6.750;2023-03-04T02:56:55;5.60;99.90
60293;DHT22;52402;52.670;6.750;2023-03-04T02:59:21;5.50;99.90
60293;DHT22;52402;52.670;6.750;2023-03-04T03:01:48;5.50;99.90
60293;DHT22;52402;52.670;6.750;2023-03-04T03:04:14;5.50;99.90
60293;DHT22;52402;52.670;6.750;2023-03-04T03:06:40;5.50;99.90
60293;DHT22;52402;52.670;6.750;2023-03-04T03:09:06;5.50;99.90
60293;DHT22;52402;52.670;6.750;2023-03-04T03:11:32;5.50;99.90
60293;DHT22;52402;52.670;6.750;2023-03-04T03:13:58;5.50;99.90
60293;DHT22;52402;52.670;6.750;2023-03-04T03:16:23;5.50;99.90
60293;DHT22;52402;52.670;6.750;2023-03-04T03:18:49;5.50;99.90
60293;DHT22;52402;52.670;6.750;2023-03-04T03:21:15;5.50;99.90
60293;DHT22;52402;52.670;6.750;2023-03-04T03:23:40;5.50;99.90
60293;DHT22;52402;52.670;6.750;2023-03-04T03:26:06;5.50;99.90
60293;DHT22;52402;52.670;6.750;2023-03-04T03:28:32;5.50;99.90
60293;DHT22;52402;52.670;6.750;2023-03-04T03:30:58;5.50;99.90
60293;DHT22;52402;52.670;6.750;2023-03-04T03:33:23;5.40;99.90
60293;DHT22;52402;52.670;6.750;2023-03-04T03:35:49;5.40;99.90
60293;DHT22;52402;52.670;6.750;2023-03-04T03:38:15;5.40;99.90
60293;DHT22;52402;52.670;6.750;2023-03-04T03:40:40;5.40;99.90
60293;DHT22;52402;52.670;6.750;2023-03-04T03:43:06;5.40;99.90
60293;DHT22;52402;52.670;6.750;2023-03-04T03:45:32;5.40;99.90
60293;DHT22;52402;52.670;6.750;2023-03-04T03:47:57;5.40;99.90
60293;DHT22;52402;52.670;6.750;2023-03-04T03:50:23;5.40;99.90
60293;DHT22;52402;52.670;6.750;2023-03-04T03:52:48;5.40;99.90
60293;DHT22;52402;52.670;6.750;2023-03-04T03:55:14;5.40;99.90
60293;DHT22;52402;52.670;6.750;2023-03-04T03:57:40;5.40;99.90
60293;DHT22;52402;52.670;6.750;2023-03-04T04:00:10;5.40;99.90
60293;DHT22;52402;52.670;6.750;2023-03-04T04:02:35;5.40;99.90
60293;DHT22;52402;52.670;6.750;2023-03-04T04:05:01;5.40;99.90
60293;DHT22;52402;52.670;6.750;2023-03-04T04:07:27;5.40;99.90
60293;DHT22;52402;52.670;6.750;2023-03-04T04:09:52;5.40;99.90
60293;DHT22;52402;52.670;6.750;2023-03-04T04:12:18;5.40;99.90
60293;DHT22;52402;52.670;6.750;2023-03-04T04:14:44;5.40;99.90
60293;DHT22;52402;52.670;6.750;2023-03-04T04:17:11;5.40;99.90
60293;DHT22;52402;52.670;6.750;2023-03-04T04:19:38;5.50;99.90
60293;DHT22;52402;52.670;6.750;2023-03-04T04:22:06;5.40;99.90
60293;DHT22;52402;52.670;6.750;2023-03-04T04:24:33;5.40;99.90
60293;DHT22;52402;52.670;6.750;2023-03-04T04:26:58;5.40;99.90
60293;DHT22;52402;52.670;6.750;2023-03-04T04:29:24;5.40;99.90
60293;DHT22;52402;52.670;6.750;2023-03-04T04:31:50;5.40;99.90
60293;DHT22;52402;52.670;6.750;2023-03-04T04:34:16;5.40;99.90
60293;DHT22;52402;52.670;6.750;2023-03-04T04:36:41;5.40;99.90
60293;DHT22;52402;52.670;6.750;2023-03-04T04:39:07;5.40;99.90
60293;DHT22;52402;52.670;6.750;2023-03-04T04:41:37;5.40;99.90
60293;DHT22;52402;52.670;6.750;2023-03-04T04:44:03;5.40;99.90
60293;DHT22;52402;52.670;6.750;2023-03-04T04:46:28;5.40;99.90
60293;DHT22;52402;52.670;6.750;2023-03-04T04:48:54;5.30;99.90
60293;DHT22;52402;52.670;6.750;2023-03-04T04:51:20;5.40;99.90
60293;DHT22;52402;52.670;6.750;2023-03-04T04:53:46;5.40;99.90
60293;DHT22;52402;52.670;6.750;2023-03-04T04:56:15;5.40;99.90
60293;DHT22;52402;52.670;6.750;2023-03-04T04:58:42;5.40;99.90
60293;DHT22;52402;52.670;6.750;2023-03-04T05:01:09;5.40;99.90
60293;DHT22;52402;52.670;6.750;2023-03-04T05:03:36;5.40;99.90
60293;DHT22;52402;52.670;6.750;2023-03-04T05:06:02;5.40;99.90
60293;DHT22;52402;52.670;6.750;2023-03-04T05:08:28;5.40;99.90
60293;DHT22;52402;52.670;6.750;2023-03-04T05:10:54;5.40;99.90
60293;DHT22;52402;52.670;6.750;2023-03-04T05:13:20;5.30;99.90
60293;DHT22;52402;52.670;6.750;2023-03-04T05:15:46;5.30;99.90
60293;DHT22;52402;52.670;6.750;2023-03-04T05:18:12;5.30;99.90
60293;DHT22;52402;52.670;6.750;2023-03-04T05:20:38;5.30;99.90
60293;DHT22;52402;52.670;6.750;2023-03-04T05:23:03;5.30;99.90
60293;DHT22;52402;52.670;6.750;2023-03-04T05:25:29;5.30;99.90
60293;DHT22;52402;52.670;6.750;2023-03-04T05:27:55;5.30;99.90
60293;DHT22;52402;52.670;6.750;2023-03-04T05:30:20;5.30;99.90
60293;DHT22;52402;52.670;6.750;2023-03-04T05:32:46;5.30;99.90
60293;DHT22;52402;52.670;6.750;2023-03-04T05:35:12;5.30;99.90
60293;DHT22;52402;52.670;6.750;2023-03-04T05:37:38;5.30;99.90
60293;DHT22;52402;52.670;6.750;2023-03-04T05:40:04;5.30;99.90
60293;DHT22;52402;52.670;6.750;2023-03-04T05:42:30;5.20;99.90
60293;DHT22;52402;52.670;6.750;2023-03-04T05:44:56;5.20;99.90
60293;DHT22;52402;52.670;6.750;2023-03-04T05:47:21;5.20;99.90
60293;DHT22;52402;52.670;6.750;2023-03-04T05:49:47;5.20;99.90
60293;DHT22;52402;52.670;6.750;2023-03-04T05:52:12;5.20;99.90
60293;DHT22;52402;52.670;6.750;2023-03-04T05:54:38;5.20;99.90
60293;DHT22;52402;52.670;6.750;2023-03-04T05:57:04;5.20;99.90
60293;DHT22;52402;52.670;6.750;2023-03-04T05:59:29;5.20;99.90
60293;DHT22;52402;52.670;6.750;2023-03-04T06:01:55;5.10;99.90
60293;DHT22;52402;52.670;6.750;2023-03-04T06:04:21;5.20;99.90
60293;DHT22;52402;52.670;6.750;2023-03-04T06:06:47;5.20;99.90
60293;DHT22;52402;52.670;6.750;2023-03-04T06:09:13;5.20;99.90
60293;DHT22;52402;52.670;6.750;2023-03-04T06:11:39;5.20;99.90
60293;DHT22;52402;52.670;6.750;2023-03-04T06:14:05;5.20;99.90
60293;DHT22;52402;52.670;6.750;2023-03-04T06:16:31;5.10;99.90
60293;DHT22;52402;52.670;6.750;2023-03-04T06:18:57;5.20;99.90
60293;DHT22;52402;52.670;6.750;2023-03-04T06:21:22;5.10;99.90
60293;DHT22;52402;52.670;6.750;2023-03-04T06:23:48;5.10;99.90
60293;DHT22;52402;52.670;6.750;2023-03-04T06:26:14;5.10;99.90
60293;DHT22;52402;52.670;6.750;2023-03-04T06:28:43;5.10;99.90
60293;DHT22;52402;52.670;6.750;2023-03-04T06:31:09;5.10;99.90
60293;DHT22;52402;52.670;6.750;2023-03-04T06:33:34;5.10;99.90
60293;DHT22;52402;52.670;6.750;2023-03-04T06:36:00;5.10;99.90
60293;DHT22;52402;52.670;6.750;2023-03-04T06:38:26;5.00;99.90
60293;DHT22;52402;52.670;6.750;2023-03-04T06:40:52;5.00;99.90
60293;DHT22;52402;52.670;6.750;2023-03-04T06:43:18;5.00;99.90
60293;DHT22;52402;52.670;6.750;2023-03-04T06:45:44;5.00;99.90
60293;DHT22;52402;52.670;6.750;2023-03-04T06:48:10;5.00;99.90
60293;DHT22;52402;52.670;6.750;2023-03-04T06:50:36;5.00;99.90
60293;DHT22;52402;52.670;6.750;2023-03-04T06:53:01;5.10;99.90
60293;DHT22;52402;52.670;6.750;2023-03-04T06:55:27;5.10;99.90
60293;DHT22;52402;52.670;6.750;2023-03-04T06:57:53;5.20;99.90
60293;DHT22;52402;52.670;6.750;2023-03-04T07:00:19;5.20;99.90
60293;DHT22;52402;52.670;6.750;2023-03-04T07:02:44;5.20;99.90
60293;DHT22;52402;52.670;6.750;2023-03-04T07:05:10;5.20;99.90
60293;DHT22;52402;52.670;6.750;2023-03-04T07:07:36;5.20;99.90
60293;DHT22;52402;52.670;6.750;2023-03-04T07:10:02;5.20;99.90
60293;DHT22;52402;52.670;6.750;2023-03-04T07:12:28;5.20;99.90
60293;DHT22;52402;52.670;6.750;2023-03-04T07:14:54;5.20;99.90
60293;DHT22;52402;52.670;6.750;2023-03-04T07:17:19;5.20;99.90
60293;DHT22;52402;52.670;6.750;2023-03-04T07:19:45;5.30;99.90
60293;DHT22;52402;52.670;6.750;2023-03-04T07:22:11;5.30;99.90
60293;DHT22;52402;52.670;6.750;2023-03-04T07:24:36;5.30;99.90
60293;DHT22;52402;52.670;6.750;2023-03-04T07:27:02;5.30;99.90
60293;DHT22;52402;52.670;6.750;2023-03-04T07:29:27;5.40;99.90
60293;DHT22;52402;52.670;6.750;2023-03-04T07:31:53;5.50;99.90
60293;DHT22;52402;52.670;6.750;2023-03-04T07:34:19;5.50;99.90
60293;DHT22;52402;52.670;6.750;2023-03-04T07:36:45;5.60;99.90
60293;DHT22;52402;52.670;6.750;2023-03-04T07:39:11;5.70;99.90
60293;DHT22;52402;52.670;6.750;2023-03-04T07:41:38;5.70;99.90
60293;DHT22;52402;52.670;6.750;2023-03-04T07:44:06;5.80;99.90
60293;DHT22;52402;52.670;6.750;2023-03-04T07:46:32;5.70;99.90
60293;DHT22;52402;52.670;6.750;2023-03-04T07:48:58;5.80;99.90
60293;DHT22;52402;52.670;6.750;2023-03-04T07:51:25;5.80;99.90
60293;DHT22;52402;52.670;6.750;2023-03-04T07:53:54;5.80;99.90
60293;DHT22;52402;52.670;6.750;2023-03-04T07:56:23;5.90;99.90
60293;DHT22;52402;52.670;6.750;2023-03-04T07:58:49;5.90;99.90
60293;DHT22;52402;52.670;6.750;2023-03-04T08:01:20;5.80;99.90
60293;DHT22;52402;52.670;6.750;2023-03-04T08:03:47;5.90;99.90
60293;DHT22;52402;52.670;6.750;2023-03-04T08:06:15;5.90;99.90
60293;DHT22;52402;52.670;6.750;2023-03-04T08:08:41;6.00;99.90
60293;DHT22;52402;52.670;6.750;2023-03-04T08:11:16;6.00;99.90
60293;DHT22;52402;52.670;6.750;2023-03-04T08:13:42;6.10;99.90
60293;DHT22;52402;52.670;6.750;2023-03-04T08:16:09;6.20;99.90
60293;DHT22;52402;52.670;6.750;2023-03-04T08:18:35;6.30;99.90
60293;DHT22;52402;52.670;6.750;2023-03-04T08:21:01;6.40;99.90
60293;DHT22;52402;52.670;6.750;2023-03-04T08:23:32;6.50;99.90
60293;DHT22;52402;52.670;6.750;2023-03-04T08:25:57;6.60;99.90
60293;DHT22;52402;52.670;6.750;2023-03-04T08:28:23;6.60;99.90
60293;DHT22;52402;52.670;6.750;2023-03-04T08:30:52;6.70;99.90
60293;DHT22;52402;52.670;6.750;2023-03-04T08:33:18;6.60;99.90
60293;DHT22;52402;52.670;6.750;2023-03-04T08:35:44;6.60;99.90
60293;DHT22;52402;52.670;6.750;2023-03-04T08:38:09;6.60;99.90
60293;DHT22;52402;52.670;6.750;2023-03-04T08:40:35;6.50;99.90
60293;DHT22;52402;52.670;6.750;2023-03-04T08:43:01;6.50;99.90
60293;DHT22;52402;52.670;6.750;2023-03-04T08:45:26;6.50;99.90
60293;DHT22;52402;52.670;6.750;2023-03-04T08:47:52;6.50;99.90
60293;DHT22;52402;52.670;6.750;2023-03-04T08:50:18;6.50;99.90
60293;DHT22;52402;52.670;6.750;2023-03-04T08:52:43;6.50;99.90
60293;DHT22;52402;52.670;6.750;2023-03-04T08:55:09;6.50;99.90
60293;DHT22;52402;52.670;6.750;2023-03-04T08:57:34;6.50;99.90
60293;DHT22;52402;52.670;6.750;2023-03-04T09:00:00;6.60;99.90
60293;DHT22;52402;52.670;6.750;2023-03-04T09:02:26;6.60;99.90
60293;DHT22;52402;52.670;6.750;2023-03-04T09:04:51;6.60;99.90
60293;DHT22;52402;52.670;6.750;2023-03-04T09:07:17;6.70;99.90
60293;DHT22;52402;52.670;6.750;2023-03-04T09:09:42;6.80;99.90
60293;DHT22;52402;52.670;6.750;2023-03-04T09:12:08;6.90;99.90
60293;DHT22;52402;52.670;6.750;2023-03-04T09:14:34;6.90;99.90
60293;DHT22;52402;52.670;6.750;2023-03-04T09:17:04;7.00;99.90
60293;DHT22;52402;52.670;6.750;2023-03-04T09:19:30;7.10;99.90
60293;DHT22;52402;52.670;6.750;2023-03-04T09:21:56;7.20;99.90
60293;DHT22;52402;52.670;6.750;2023-03-04T09:24:24;7.30;99.90
60293;DHT22;52402;52.670;6.750;2023-03-04T09:26:50;7.40;99.90
60293;DHT22;52402;52.670;6.750;2023-03-04T09:29:16;7.30;99.90
60293;DHT22;52402;52.670;6.750;2023-03-04T09:31:42;7.30;99.90
60293;DHT22;52402;52.670;6.750;2023-03-04T09:34:08;7.20;99.90
60293;DHT22;52402;52.670;6.750;2023-03-04T09:36:33;7.20;99.90
60293;DHT22;52402;52.670;6.750;2023-03-04T09:39:00;7.10;99.90
60293;DHT22;52402;52.670;6.750;2023-03-04T09:41:50;7.00;99.90
60293;DHT22;52402;52.670;6.750;2023-03-04T09:44:27;6.90;99.90
60293;DHT22;52402;52.670;6.750;2023-03-04T09:46:56;6.90;99.90
60293;DHT22;52402;52.670;6.750;2023-03-04T09:49:23;6.90;99.90
60293;DHT22;52402;52.670;6.750;2023-03-04T09:54:58;7.10;99.90
60293;DHT22;52402;52.670;6.750;2023-03-04T10:00:24;7.30;99.90
60293;DHT22;52402;52.670;6.750;2023-03-04T10:05:23;7.30;99.90
60293;DHT22;52402;52.670;6.750;2023-03-04T10:07:56;7.40;99.90
60293;DHT22;52402;52.670;6.750;2023-03-04T10:10:32;7.50;99.90
60293;DHT22;52402;52.670;6.750;2023-03-04T10:13:01;7.50;99.90
60293;DHT22;52402;52.670;6.750;2023-03-04T10:15:40;7.40;99.90
60293;DHT22;52402;52.670;6.750;2023-03-04T10:18:26;7.40;99.90
60293;DHT22;52402;52.670;6.750;2023-03-04T10:23:31;7.30;99.90
60293;DHT22;52402;52.670;6.750;2023-03-04T10:26:00;7.30;99.90
60293;DHT22;52402;52.670;6.750;2023-03-04T10:28:33;7.20;99.90
60293;DHT22;52402;52.670;6.750;2023-03-04T10:31:20;7.20;99.90
60293;DHT22;52402;52.670;6.750;2023-03-04T10:33:47;7.20;99.90
60293;DHT22;52402;52.670;6.750;2023-03-04T10:38:53;7.20;99.90
60293;DHT22;52402;52.670;6.750;2023-03-04T10:41:21;7.20;99.90
60293;DHT22;52402;52.670;6.750;2023-03-04T10:46:27;7.30;99.90
60293;DHT22;52402;52.670;6.750;2023-03-04T10:48:54;7.40;99.90
60293;DHT22;52402;52.670;6.750;2023-03-04T10:51:22;7.50;99.90
60293;DHT22;52402;52.670;6.750;2023-03-04T10:54:13;7.60;99.90
60293;DHT22;52402;52.670;6.750;2023-03-04T10:56:43;7.50;99.90
60293;DHT22;52402;52.670;6.750;2023-03-04T10:59:45;7.40;99.90
60293;DHT22;52402;52.670;6.750;2023-03-04T11:02:34;7.40;99.90
60293;DHT22;52402;52.670;6.750;2023-03-04T11:07:52;7.30;99.90
60293;DHT22;52402;52.670;6.750;2023-03-04T11:10:28;7.20;99.90
60293;DHT22;52402;52.670;6.750;2023-03-04T11:13:01;7.10;99.90
60293;DHT22;52402;52.670;6.750;2023-03-04T11:15:29;7.00;99.90
60293;DHT22;52402;52.670;6.750;2023-03-04T11:18:03;7.00;99.90
60293;DHT22;52402;52.670;6.750;2023-03-04T11:20:41;7.10;99.90
60293;DHT22;52402;52.670;6.750;2023-03-04T11:23:34;7.10;99.90
60293;DHT22;52402;52.670;6.750;2023-03-04T11:26:08;7.20;99.90
60293;DHT22;52402;52.670;6.750;2023-03-04T11:28:48;7.40;99.90
60293;DHT22;52402;52.670;6.750;2023-03-04T11:31:22;7.50;99.90
60293;DHT22;52402;52.670;6.750;2023-03-04T11:34:06;7.60;99.90
60293;DHT22;52402;52.670;6.750;2023-03-04T11:36:59;7.70;99.90
60293;DHT22;52402;52.670;6.750;2023-03-04T11:39:40;7.90;99.90
60293;DHT22;52402;52.670;6.750;2023-03-04T11:42:20;7.90;99.90
60293;DHT22;52402;52.670;6.750;2023-03-04T11:44:48;7.90;99.90
60293;DHT22;52402;52.670;6.750;2023-03-04T11:58:35;7.80;99.90
60293;DHT22;52402;52.670;6.750;2023-03-04T12:01:27;7.80;99.90
60293;DHT22;52402;52.670;6.750;2023-03-04T12:04:09;7.80;99.90
60293;DHT22;52402;52.670;6.750;2023-03-04T12:15:43;8.00;99.90
60293;DHT22;52402;52.670;6.750;2023-03-04T12:32:16;7.60;99.90
60293;DHT22;52402;52.670;6.750;2023-03-04T12:34:51;7.70;99.90
60293;DHT22;52402;52.670;6.750;2023-03-04T12:46:26;7.90;99.90
60293;DHT22;52402;52.670;6.750;2023-03-04T12:49:20;7.90;99.90
60293;DHT22;52402;52.670;6.750;2023-03-04T12:54:30;8.10;99.90
60293;DHT22;52402;52.670;6.750;2023-03-04T12:57:01;8.10;99.90
60293;DHT22;52402;52.670;6.750;2023-03-04T12:59:32;8.10;99.90
60293;DHT22;52402;52.670;6.750;2023-03-04T13:05:01;8.30;99.90
60293;DHT22;52402;52.670;6.750;2023-03-04T13:10:21;8.40;99.90
60293;DHT22;52402;52.670;6.750;2023-03-04T13:12:54;8.40;99.90
60293;DHT22;52402;52.670;6.750;2023-03-04T13:18:51;8.40;99.90
60293;DHT22;52402;52.670;6.750;2023-03-04T13:21:20;8.40;99.90
60293;DHT22;52402;52.670;6.750;2023-03-04T13:23:47;8.10;99.90
60293;DHT22;52402;52.670;6.750;2023-03-04T13:26:22;8.20;99.90
60293;DHT22;52402;52.670;6.750;2023-03-04T13:29:30;8.10;99.90
60293;DHT22;52402;52.670;6.750;2023-03-04T13:32:04;8.20;99.90
60293;DHT22;52402;52.670;6.750;2023-03-04T13:34:52;8.30;99.90
60293;DHT22;52402;52.670;6.750;2023-03-04T13:37:26;8.00;99.90
60293;DHT22;52402;52.670;6.750;2023-03-04T13:42:46;7.80;99.90
60293;DHT22;52402;52.670;6.750;2023-03-04T13:45:33;7.90;99.90
60293;DHT22;52402;52.670;6.750;2023-03-04T13:48:01;7.90;99.90
60293;DHT22;52402;52.670;6.750;2023-03-04T13:50:35;8.00;99.90
60293;DHT22;52402;52.670;6.750;2023-03-04T13:53:30;8.10;99.90
60293;DHT22;52402;52.670;6.750;2023-03-04T13:56:58;8.20;99.90
60293;DHT22;52402;52.670;6.750;2023-03-04T14:02:10;8.30;99.90
60293;DHT22;52402;52.670;6.750;2023-03-04T14:04:39;8.20;99.90
60293;DHT22;52402;52.670;6.750;2023-03-04T14:07:24;7.90;99.90
60293;DHT22;52402;52.670;6.750;2023-03-04T14:09:57;7.60;99.90
60293;DHT22;52402;52.670;6.750;2023-03-04T14:12:25;7.50;99.90
60293;DHT22;52402;52.670;6.750;2023-03-04T14:15:15;7.30;99.90
60293;DHT22;52402;52.670;6.750;2023-03-04T14:17:50;7.30;99.90
60293;DHT22;52402;52.670;6.750;2023-03-04T14:20:25;7.30;99.90
60293;DHT22;52402;52.670;6.750;2023-03-04T14:22:52;7.40;99.90
60293;DHT22;52402;52.670;6.750;2023-03-04T14:25:25;7.50;99.90
60293;DHT22;52402;52.670;6.750;2023-03-04T14:28:08;7.50;99.90
60293;DHT22;52402;52.670;6.750;2023-03-04T14:30:34;7.50;99.90
60293;DHT22;52402;52.670;6.750;2023-03-04T14:33:00;7.50;99.90
60293;DHT22;52402;52.670;6.750;2023-03-04T14:35:28;7.60;99.90
60293;DHT22;52402;52.670;6.750;2023-03-04T14:38:07;7.50;99.90
60293;DHT22;52402;52.670;6.750;2023-03-04T14:40:34;7.50;99.90
60293;DHT22;52402;52.670;6.750;2023-03-04T14:43:14;7.40;99.90
60293;DHT22;52402;52.670;6.750;2023-03-04T14:45:42;7.40;99.90
60293;DHT22;52402;52.670;6.750;2023-03-04T14:48:10;7.40;99.90
60293;DHT22;52402;52.670;6.750;2023-03-04T14:50:52;7.30;99.90
60293;DHT22;52402;52.670;6.750;2023-03-04T14:53:20;7.20;99.90
60293;DHT22;52402;52.670;6.750;2023-03-04T14:56:07;7.10;99.90
60293;DHT22;52402;52.670;6.750;2023-03-04T14:58:34;7.00;99.90
60293;DHT22;52402;52.670;6.750;2023-03-04T15:01:15;6.80;99.90
60293;DHT22;52402;52.670;6.750;2023-03-04T15:04:02;6.80;99.90
60293;DHT22;52402;52.670;6.750;2023-03-04T15:06:32;6.80;99.90
60293;DHT22;52402;52.670;6.750;2023-03-04T15:11:32;6.80;99.90
60293;DHT22;52402;52.670;6.750;2023-03-04T15:14:04;6.80;99.90
60293;DHT22;52402;52.670;6.750;2023-03-04T15:16:54;6.90;99.90
60293;DHT22;52402;52.670;6.750;2023-03-04T15:19:26;6.90;99.90
60293;DHT22;52402;52.670;6.750;2023-03-04T15:22:02;6.90;99.90
60293;DHT22;52402;52.670;6.750;2023-03-04T15:24:28;6.90;99.90
60293;DHT22;52402;52.670;6.750;2023-03-04T15:26:54;6.90;99.90
60293;DHT22;52402;52.670;6.750;2023-03-04T15:29:19;6.80;99.90
60293;DHT22;52402;52.670;6.750;2023-03-04T15:31:47;6.80;99.90
60293;DHT22;52402;52.670;6.750;2023-03-04T15:34:18;6.70;99.90
60293;DHT22;52402;52.670;6.750;2023-03-04T15:36:46;6.70;99.90
60293;DHT22;52402;52.670;6.750;2023-03-04T15:39:15;6.60;99.90
60293;DHT22;52402;52.670;6.750;2023-03-04T15:41:41;6.60;99.90
60293;DHT22;52402;52.670;6.750;2023-03-04T15:44:08;6.70;99.90
60293;DHT22;52402;52.670;6.750;2023-03-04T15:46:36;6.70;99.90
60293;DHT22;52402;52.670;6.750;2023-03-04T15:49:02;6.70;99.90
60293;DHT22;52402;52.670;6.750;2023-03-04T15:51:27;6.70;99.90
60293;DHT22;52402;52.670;6.750;2023-03-04T15:53:58;6.60;99.90
60293;DHT22;52402;52.670;6.750;2023-03-04T15:56:27;6.60;99.90
60293;DHT22;52402;52.670;6.750;2023-03-04T15:58:54;6.60;99.90
60293;DHT22;52402;52.670;6.750;2023-03-04T16:01:21;6.50;99.90
60293;DHT22;52402;52.670;6.750;2023-03-04T16:03:50;6.50;99.90
60293;DHT22;52402;52.670;6.750;2023-03-04T16:06:18;6.40;99.90
60293;DHT22;52402;52.670;6.750;2023-03-04T16:08:45;6.40;99.90
60293;DHT22;52402;52.670;6.750;2023-03-04T16:11:20;6.30;99.90
60293;DHT22;52402;52.670;6.750;2023-03-04T16:13:47;6.30;99.90
60293;DHT22;52402;52.670;6.750;2023-03-04T16:16:13;6.30;99.90
60293;DHT22;52402;52.670;6.750;2023-03-04T16:18:40;6.30;99.90
60293;DHT22;52402;52.670;6.750;2023-03-04T16:21:07;6.30;99.90
60293;DHT22;52402;52.670;6.750;2023-03-04T16:23:38;6.30;99.90
60293;DHT22;52402;52.670;6.750;2023-03-04T16:26:22;6.30;99.90
60293;DHT22;52402;52.670;6.750;2023-03-04T16:28:49;6.20;99.90
60293;DHT22;52402;52.670;6.750;2023-03-04T16:31:15;6.20;99.90
60293;DHT22;52402;52.670;6.750;2023-03-04T16:33:41;6.10;99.90
60293;DHT22;52402;52.670;6.750;2023-03-04T16:36:21;6.20;99.90
60293;DHT22;52402;52.670;6.750;2023-03-04T16:38:47;6.10;99.90
60293;DHT22;52402;52.670;6.750;2023-03-04T16:41:15;6.00;99.90
60293;DHT22;52402;52.670;6.750;2023-03-04T16:43:42;6.00;99.90
60293;DHT22;52402;52.670;6.750;2023-03-04T16:46:10;5.90;99.90
60293;DHT22;52402;52.670;6.750;2023-03-04T16:48:36;5.90;99.90
60293;DHT22;52402;52.670;6.750;2023-03-04T16:51:03;5.90;99.90
60293;DHT22;52402;52.670;6.750;2023-03-04T16:53:36;5.80;99.90
60293;DHT22;52402;52.670;6.750;2023-03-04T16:56:13;5.80;99.90
60293;DHT22;52402;52.670;6.750;2023-03-04T16:58:40;5.60;99.90
60293;DHT22;52402;52.670;6.750;2023-03-04T17:01:05;5.60;99.90
60293;DHT22;52402;52.670;6.750;2023-03-04T17:03:31;5.50;99.90
60293;DHT22;52402;52.670;6.750;2023-03-04T17:05:57;5.50;99.90
60293;DHT22;52402;52.670;6.750;2023-03-04T17:08:23;5.50;99.90
60293;DHT22;52402;52.670;6.750;2023-03-04T17:10:48;5.50;99.90
60293;DHT22;52402;52.670;6.750;2023-03-04T17:13:14;5.40;99.90
60293;DHT22;52402;52.670;6.750;2023-03-04T17:15:40;5.40;99.90
60293;DHT22;52402;52.670;6.750;2023-03-04T17:18:11;5.40;99.90
60293;DHT22;52402;52.670;6.750;2023-03-04T17:20:36;5.30;99.90
60293;DHT22;52402;52.670;6.750;2023-03-04T17:23:02;5.20;99.90
60293;DHT22;52402;52.670;6.750;2023-03-04T17:25:27;5.10;99.90
60293;DHT22;52402;52.670;6.750;2023-03-04T17:27:53;5.00;99.90